createdAt,value
2022-09-28T00:00:53.717Z,0.55
2022-09-28T00:06:18.789Z,1.85
2022-09-28T00:11:40.482Z,0.63
2022-09-28T00:17:02.100Z,0.75
2022-09-28T00:22:23.798Z,0.60
2022-09-28T00:27:50.171Z,0.20
2022-09-28T00:33:11.847Z,0.70
2022-09-28T00:38:33.492Z,0.63
2022-09-28T00:44:27.133Z,1.75
2022-09-28T00:49:59.975Z,0.40
2022-09-28T00:55:29.347Z,0.47
2022-09-28T01:00:51.158Z,0.45
2022-09-28T01:06:20.662Z,0.98
2022-09-28T01:11:43.232Z,0.20
2022-09-28T01:17:07.726Z,0.52
2022-09-28T01:22:53.978Z,0.30
2022-09-28T01:28:18.391Z,1.25
2022-09-28T01:33:46.007Z,0.20
2022-09-28T01:39:33.276Z,0.47
2022-09-28T01:45:00.896Z,0.20
2022-09-28T01:50:26.201Z,0.10
2022-09-28T01:55:52.762Z,0.10
2022-09-28T02:01:21.507Z,0.30
2022-09-28T02:06:49.325Z,0.35
2022-09-28T02:12:16.366Z,0.32
2022-09-28T02:17:38.282Z,0.30
2022-09-28T02:23:02.953Z,0.32
2022-09-28T02:28:24.583Z,0.40
2022-09-28T02:33:47.688Z,0.10
2022-09-28T02:39:17.897Z,0.35
2022-09-28T02:44:50.605Z,0.20
2022-09-28T02:50:29.907Z,0.30
2022-09-28T02:56:13.080Z,0.68
2022-09-28T03:01:45.985Z,0.10
2022-09-28T03:07:26.022Z,0.15
2022-09-28T03:12:49.167Z,0.43
2022-09-28T03:18:11.082Z,0.08
2022-09-28T03:23:33.298Z,0.47
2022-09-28T03:28:54.942Z,0.10
2022-09-28T03:34:16.564Z,1.08
2022-09-28T03:39:38.259Z,0.10
2022-09-28T03:44:59.958Z,0.10
2022-09-28T03:50:21.685Z,1.98
2022-09-28T03:55:43.386Z,0.80
2022-09-28T04:01:10.758Z,0.25
2022-09-28T04:06:34.597Z,0.10
2022-09-28T04:12:03.836Z,0.20
2022-09-28T04:17:26.071Z,0.10
2022-09-28T04:22:47.751Z,0.25
2022-09-28T04:28:28.306Z,0.10
2022-09-28T04:33:50.006Z,0.08
2022-09-28T04:39:13.199Z,0.10
2022-09-28T04:44:34.846Z,0.38
2022-09-28T04:49:56.587Z,0.10
2022-09-28T04:55:18.306Z,0.10
2022-09-28T05:00:40.319Z,0.63
2022-09-28T05:06:01.996Z,0.10
2022-09-28T05:11:24.245Z,0.70
2022-09-28T05:16:46.039Z,0.98
2022-09-28T05:22:11.544Z,3.70
2022-09-28T05:27:33.191Z,0.43
2022-09-28T05:32:54.867Z,3.00
2022-09-28T05:38:16.532Z,0.10
2022-09-28T05:43:38.675Z,0.13
2022-09-28T05:49:00.571Z,1.23
2022-09-28T05:54:22.243Z,0.20
2022-09-28T05:59:43.996Z,0.60
2022-09-28T06:05:06.043Z,0.20
2022-09-28T06:10:28.803Z,0.75
2022-09-28T06:15:50.583Z,0.40
2022-09-28T06:21:13.628Z,3.17
2022-09-28T06:26:35.252Z,1.15
2022-09-28T06:31:56.976Z,1.58
2022-09-28T06:37:18.689Z,3.10
2022-09-28T06:42:40.414Z,0.20
2022-09-28T06:48:03.085Z,0.70
2022-09-28T06:53:24.771Z,1.65
2022-09-28T06:58:46.466Z,0.82
2022-09-28T07:04:08.148Z,0.88
2022-09-28T07:09:33.135Z,1.10
2022-09-28T07:14:57.622Z,4.95
2022-09-28T07:20:19.865Z,8.55
2022-09-28T07:25:45.668Z,13.52
2022-09-28T07:31:07.941Z,14.85
2022-09-28T07:36:30.443Z,12.95
2022-09-28T07:41:56.754Z,10.60
2022-09-28T07:47:30.878Z,12.30
2022-09-28T07:52:58.651Z,9.48
2022-09-28T07:58:20.934Z,9.27
2022-09-28T08:03:48.066Z,11.73
2022-09-28T08:09:09.872Z,10.63
2022-09-28T08:14:34.461Z,5.32
2022-09-28T08:20:14.464Z,8.97
2022-09-28T08:25:38.357Z,2.63
2022-09-28T08:31:03.786Z,6.53
2022-09-28T08:42:12.304Z,5.78
2022-09-28T08:48:23.383Z,3.60
2022-09-28T08:53:54.014Z,3.97
2022-09-28T08:59:27.176Z,4.03
2022-09-28T09:04:51.734Z,4.55
2022-09-28T09:10:35.567Z,4.82
2022-09-28T09:16:19.301Z,5.70
2022-09-28T09:21:58.437Z,4.07
2022-09-28T09:27:40.271Z,5.15
2022-09-28T09:33:11.132Z,6.53
2022-09-28T09:39:14.554Z,4.70
2022-09-28T09:45:01.530Z,5.70
2022-09-28T09:50:47.942Z,2.63
2022-09-28T09:56:26.899Z,4.25
2022-09-28T10:01:49.261Z,4.43
2022-09-28T10:07:20.899Z,3.33
2022-09-28T10:12:42.600Z,3.40
2022-09-28T10:18:10.718Z,2.45
2022-09-28T10:23:36.328Z,5.03
2022-09-28T10:34:29.289Z,4.25
2022-09-28T10:39:55.966Z,3.75
2022-09-28T10:45:23.395Z,2.83
2022-09-28T10:50:58.930Z,3.42
2022-09-28T10:56:22.491Z,1.27
2022-09-28T11:01:44.317Z,5.40
2022-09-28T11:07:25.000Z,3.53
2022-09-28T11:12:48.631Z,3.75
2022-09-28T11:18:25.011Z,3.83
2022-09-28T11:24:19.249Z,2.05
2022-09-28T11:29:43.466Z,2.40
2022-09-28T11:35:05.897Z,2.25
2022-09-28T11:40:27.570Z,3.78
2022-09-28T11:46:01.634Z,2.60
2022-09-28T11:51:36.471Z,2.17
2022-09-28T11:57:02.013Z,1.63
2022-09-28T12:08:29.123Z,1.65
2022-09-28T12:13:54.145Z,3.00
2022-09-28T12:19:21.830Z,4.47
2022-09-28T12:24:47.789Z,6.97
2022-09-28T12:30:19.537Z,1.20
2022-09-28T12:35:59.297Z,1.25
2022-09-28T12:42:05.739Z,1.42
2022-09-28T12:47:54.158Z,1.38
2022-09-28T12:53:30.063Z,1.45
2022-09-28T12:59:29.117Z,2.15
2022-09-28T13:05:24.076Z,1.63
2022-09-28T13:10:52.897Z,1.38
2022-09-28T13:16:33.868Z,1.05
2022-09-28T13:22:13.547Z,0.93
2022-09-28T13:27:40.686Z,3.70
2022-09-28T13:33:05.666Z,0.30
2022-09-28T13:38:27.273Z,1.33
2022-09-28T13:44:06.775Z,3.47
2022-09-28T13:49:37.279Z,4.03
2022-09-28T13:55:11.091Z,0.75
2022-09-28T14:00:46.666Z,1.30
2022-09-28T14:06:20.537Z,0.93
2022-09-28T14:12:46.234Z,0.70
2022-09-28T14:18:29.649Z,8.75
2022-09-28T14:24:09.337Z,14.40
2022-09-28T14:29:34.546Z,13.18
2022-09-28T14:35:00.945Z,29.10
2022-09-28T14:40:49.572Z,28.90
2022-09-28T14:46:11.824Z,20.40
2022-09-28T14:51:35.517Z,21.35
2022-09-28T14:57:23.182Z,19.95
2022-09-28T15:02:50.062Z,12.35
2022-09-28T15:08:12.192Z,12.85
2022-09-28T15:13:34.118Z,11.38
2022-09-28T15:19:13.485Z,4.88
2022-09-28T15:24:35.307Z,8.50
2022-09-28T15:30:00.730Z,14.07
2022-09-28T15:35:27.166Z,76.70
2022-09-28T15:40:49.099Z,45.60
2022-09-28T15:46:15.703Z,44.38
2022-09-28T15:51:52.904Z,33.78
2022-09-28T15:57:33.052Z,35.15
2022-09-28T16:03:22.496Z,32.47
2022-09-28T16:08:46.687Z,33.78
2022-09-28T16:14:24.021Z,22.92
2022-09-28T16:19:48.746Z,27.38
2022-09-28T16:25:20.148Z,26.53
2022-09-28T16:31:00.359Z,28.35
2022-09-28T16:36:23.398Z,26.30
2022-09-28T16:41:59.750Z,27.20
2022-09-28T16:47:21.395Z,22.88
2022-09-28T16:53:02.394Z,18.60
2022-09-28T16:58:25.295Z,18.08
2022-09-28T17:03:48.933Z,24.25
2022-09-28T17:09:13.019Z,33.35
2022-09-28T17:14:34.774Z,18.70
2022-09-28T17:19:59.100Z,12.90
2022-09-28T17:25:23.114Z,16.42
2022-09-28T17:30:45.050Z,15.10
2022-09-28T17:36:07.264Z,13.80
2022-09-28T17:41:29.131Z,17.30
2022-09-28T17:46:51.212Z,26.55
2022-09-28T17:52:13.289Z,17.13
2022-09-28T17:57:34.952Z,18.60
2022-09-28T18:02:58.583Z,28.48
2022-09-28T18:08:21.338Z,28.08
2022-09-28T18:13:46.068Z,26.08
2022-09-28T18:19:07.853Z,15.57
2022-09-28T18:24:30.039Z,24.38
2022-09-28T18:29:51.750Z,8.45
2022-09-28T18:35:13.485Z,12.02
2022-09-28T18:40:36.229Z,13.88
2022-09-28T18:45:58.075Z,10.77
2022-09-28T18:51:20.678Z,8.48
2022-09-28T18:56:42.340Z,7.85
2022-09-28T19:02:04.867Z,14.40
2022-09-28T19:07:27.294Z,16.42
2022-09-28T19:12:49.035Z,11.95
2022-09-28T19:18:10.670Z,11.88
2022-09-28T19:23:33.130Z,14.63
2022-09-28T19:28:58.474Z,27.52
2022-09-28T19:34:20.375Z,15.85
2022-09-28T19:39:42.191Z,31.75
2022-09-28T19:45:10.974Z,20.63
2022-09-28T19:50:33.097Z,22.63
2022-09-28T19:55:56.761Z,17.13
2022-09-28T20:01:18.493Z,18.38
2022-09-28T20:06:40.817Z,13.40
2022-09-28T20:12:02.544Z,11.23
2022-09-28T20:17:24.283Z,10.95
2022-09-28T20:22:46.219Z,14.75
2022-09-28T20:28:08.026Z,18.50
2022-09-28T20:33:31.128Z,11.10
2022-09-28T20:38:54.468Z,8.20
2022-09-28T20:44:16.251Z,11.20
2022-09-28T20:49:38.066Z,9.05
2022-09-28T20:54:59.705Z,12.73
2022-09-28T21:00:21.509Z,7.05
2022-09-28T21:05:43.348Z,10.35
2022-09-28T21:11:05.022Z,8.27
2022-09-28T21:16:28.893Z,3.08
2022-09-28T21:21:51.399Z,4.75
2022-09-28T21:27:13.056Z,5.32
2022-09-28T21:32:35.390Z,7.80
2022-09-28T21:37:57.590Z,4.32
2022-09-28T21:43:19.247Z,8.50
2022-09-28T21:48:41.107Z,3.63
2022-09-28T21:54:02.759Z,2.90
2022-09-28T21:59:25.229Z,4.47
2022-09-28T22:04:47.150Z,3.80
2022-09-28T22:10:13.432Z,1.55
2022-09-28T22:15:35.267Z,4.03
2022-09-28T22:21:09.946Z,1.67
2022-09-28T22:26:33.787Z,2.85
2022-09-28T22:32:02.180Z,2.60
2022-09-28T22:37:26.011Z,1.92
2022-09-28T22:42:47.693Z,3.22
2022-09-28T22:48:10.266Z,3.45
2022-09-28T22:53:33.341Z,2.03
2022-09-28T22:58:55.314Z,1.38
2022-09-28T23:04:16.933Z,1.45
2022-09-28T23:09:38.598Z,2.00
2022-09-28T23:15:00.237Z,1.60
2022-09-28T23:20:22.469Z,2.13
2022-09-28T23:25:44.137Z,2.33
2022-09-28T23:31:18.511Z,0.77
2022-09-28T23:36:40.970Z,0.95
2022-09-28T23:42:03.226Z,0.95
2022-09-28T23:47:24.851Z,1.83
2022-09-28T23:52:48.320Z,1.55
2022-09-28T23:58:11.818Z,2.75
